createdAt,value
2023-04-14T00:07:29.066Z,13.47
2023-04-14T00:22:30.919Z,13.03
2023-04-14T00:37:32.557Z,12.47
2023-04-14T00:52:34.366Z,13.90
2023-04-14T01:07:36.519Z,12.03
2023-04-14T01:22:47.912Z,12.20
2023-04-14T01:37:57.156Z,12.17
2023-04-14T01:53:00.384Z,11.83
2023-04-14T02:08:06.573Z,12.47
2023-04-14T02:23:08.251Z,12.97
2023-04-14T02:38:20.627Z,12.20
2023-04-14T02:53:25.503Z,13.83
2023-04-14T03:08:27.496Z,12.53
2023-04-14T03:23:29.948Z,11.47
2023-04-14T03:38:33.209Z,12.50
2023-04-14T03:53:38.153Z,12.30
2023-04-14T04:08:41.756Z,10.50
2023-04-14T04:23:46.523Z,11.17
2023-04-14T04:38:49.888Z,10.37
2023-04-14T04:53:52.353Z,11.47
2023-04-14T05:08:55.430Z,13.33
2023-04-14T05:23:57.100Z,11.97
2023-04-14T05:38:58.955Z,13.97
2023-04-14T06:09:03.178Z,13.63
2023-04-14T06:24:05.259Z,15.67
2023-04-14T06:39:07.052Z,13.97
2023-04-14T06:54:08.721Z,15.07
2023-04-14T07:09:10.435Z,15.93
2023-04-14T07:24:14.769Z,15.87
2023-04-14T07:39:17.209Z,18.53
2023-04-14T07:54:19.097Z,18.40
2023-04-14T08:09:20.787Z,20.37
2023-04-14T08:24:22.529Z,23.17
2023-04-14T08:39:24.250Z,29.27
2023-04-14T08:54:27.404Z,27.00
2023-04-14T09:09:30.750Z,30.07
2023-04-14T09:24:34.486Z,28.37
2023-04-14T09:39:46.784Z,31.10
2023-04-14T09:54:54.903Z,28.90
2023-04-14T10:09:56.673Z,26.40
2023-04-14T10:24:59.603Z,31.33
2023-04-14T10:40:05.456Z,31.90
2023-04-14T10:55:11.689Z,26.33
2023-04-14T11:10:19.368Z,23.23
2023-04-14T11:25:24.382Z,21.50
2023-04-14T11:40:27.563Z,21.83
2023-04-14T11:55:29.871Z,19.23
2023-04-14T12:10:31.650Z,15.53
2023-04-14T12:25:33.566Z,13.43
2023-04-14T12:40:43.896Z,14.17
2023-04-14T12:55:45.597Z,14.10
2023-04-14T13:10:47.292Z,14.60
2023-04-14T13:25:49.360Z,11.97
2023-04-14T13:40:50.989Z,11.60
2023-04-14T13:55:52.668Z,11.53
2023-04-14T14:10:54.389Z,11.27
2023-04-14T14:25:56.344Z,12.13
2023-04-14T14:40:58.108Z,13.60
2023-04-14T14:56:00.154Z,12.47
2023-04-14T15:11:01.876Z,13.50
2023-04-14T15:26:03.890Z,16.73
2023-04-14T15:41:06.028Z,16.13
2023-04-14T15:56:07.795Z,15.50
2023-04-14T16:11:15.769Z,15.20
2023-04-14T16:26:17.614Z,14.50
2023-04-14T16:41:19.340Z,12.80
2023-04-14T16:56:20.998Z,12.53
2023-04-14T17:11:22.658Z,12.93
2023-04-14T17:26:24.806Z,10.97
2023-04-14T17:41:28.197Z,12.90
2023-04-14T17:56:31.693Z,13.43
2023-04-14T18:11:33.331Z,12.00
2023-04-14T18:26:34.948Z,13.47
2023-04-14T18:56:38.250Z,10.73
2023-04-14T19:11:40.088Z,11.83
2023-04-14T19:26:41.737Z,9.27
2023-04-14T19:41:43.328Z,9.70
2023-04-14T19:56:45.178Z,9.20
2023-04-14T20:11:47.041Z,8.37
2023-04-14T20:26:48.637Z,8.07
2023-04-14T20:41:50.956Z,7.37
2023-04-14T20:56:52.759Z,7.33
2023-04-14T21:12:14.301Z,7.63
2023-04-14T21:27:17.394Z,8.00
2023-04-14T21:42:19.062Z,7.67
2023-04-14T21:57:45.570Z,8.57
2023-04-14T22:12:42.658Z,8.47
2023-04-14T22:27:44.317Z,8.07
2023-04-14T22:42:46.528Z,9.13
2023-04-14T22:57:48.834Z,8.53
2023-04-14T23:12:50.582Z,8.60
2023-04-14T23:27:52.393Z,9.03
2023-04-14T23:42:56.099Z,8.80
